createdAt,value
2022-08-05T00:01:35.969Z,51.20
2022-08-05T00:04:15.163Z,51.40
2022-08-05T00:06:43.575Z,51.60
2022-08-05T00:09:13.194Z,51.70
2022-08-05T00:11:48.245Z,51.70
2022-08-05T00:14:17.178Z,51.70
2022-08-05T00:16:52.398Z,51.80
2022-08-05T00:19:22.589Z,51.90
2022-08-05T00:21:49.630Z,52.50
2022-08-05T00:24:24.077Z,52.50
2022-08-05T00:26:53.189Z,51.90
2022-08-05T00:29:22.576Z,51.90
2022-08-05T00:31:54.009Z,52.00
2022-08-05T00:34:54.740Z,52.20
2022-08-05T00:37:24.953Z,52.30
2022-08-05T00:39:58.308Z,52.40
2022-08-05T00:42:35.458Z,52.50
2022-08-05T00:45:05.310Z,52.70
2022-08-05T00:47:57.404Z,52.80
2022-08-05T00:50:25.484Z,52.80
2022-08-05T00:52:53.378Z,53.00
2022-08-05T00:55:22.372Z,53.10
2022-08-05T00:57:57.890Z,53.20
2022-08-05T01:00:27.422Z,53.10
2022-08-05T01:02:54.640Z,53.30
2022-08-05T01:05:21.728Z,53.40
2022-08-05T01:08:40.333Z,53.50
2022-08-05T01:10:41.217Z,53.40
2022-08-05T01:13:27.486Z,53.50
2022-08-05T01:16:13.390Z,53.80
2022-08-05T01:18:56.229Z,54.00
2022-08-05T01:21:37.906Z,54.00
2022-08-05T01:24:20.026Z,54.00
2022-08-05T01:26:58.333Z,54.10
2022-08-05T01:29:25.623Z,54.20
2022-08-05T01:31:53.124Z,54.20
2022-08-05T01:34:20.824Z,54.20
2022-08-05T01:36:49.700Z,54.20
2022-08-05T01:39:47.178Z,54.10
2022-08-05T01:42:04.279Z,54.20
2022-08-05T01:44:35.415Z,54.20
2022-08-05T01:47:02.602Z,54.30
2022-08-05T01:50:00.564Z,54.50
2022-08-05T01:52:19.318Z,54.60
2022-08-05T01:54:47.026Z,54.60
2022-08-05T01:58:13.648Z,54.80
2022-08-05T02:00:11.623Z,54.90
2022-08-05T02:02:46.363Z,55.50
2022-08-05T02:05:18.423Z,55.00
2022-08-05T02:08:00.305Z,55.10
2022-08-05T02:10:29.152Z,55.20
2022-08-05T02:12:58.324Z,55.30
2022-08-05T02:15:33.235Z,55.40
2022-08-05T02:18:31.408Z,55.40
2022-08-05T02:21:01.272Z,55.60
2022-08-05T02:23:29.417Z,55.70
2022-08-05T02:26:01.009Z,55.80
2022-08-05T02:28:32.979Z,56.00
2022-08-05T02:31:14.330Z,56.10
2022-08-05T02:33:42.805Z,56.20
2022-08-05T02:36:13.324Z,56.40
2022-08-05T02:38:42.228Z,56.60
2022-08-05T02:41:16.949Z,56.80
2022-08-05T02:44:05.983Z,56.90
2022-08-05T02:46:32.155Z,56.80
2022-08-05T02:48:59.254Z,56.70
2022-08-05T02:51:28.201Z,56.70
2022-08-05T02:54:36.264Z,56.70
2022-08-05T02:57:00.664Z,56.80
2022-08-05T02:59:28.188Z,56.90
2022-08-05T03:02:00.711Z,57.00
2022-08-05T03:04:27.747Z,57.00
2022-08-05T03:06:59.635Z,57.20
2022-08-05T03:09:38.083Z,57.20
2022-08-05T03:12:10.992Z,57.30
2022-08-05T03:14:45.780Z,57.40
2022-08-05T03:17:13.236Z,57.60
2022-08-05T03:19:41.795Z,57.50
2022-08-05T03:22:16.740Z,57.40
2022-08-05T03:24:47.097Z,57.40
2022-08-05T03:27:14.412Z,58.00
2022-08-05T03:29:45.107Z,57.50
2022-08-05T03:32:31.032Z,57.60
2022-08-05T03:34:58.492Z,57.80
2022-08-05T03:37:25.615Z,57.90
2022-08-05T03:39:59.036Z,58.00
2022-08-05T03:42:28.951Z,58.10
2022-08-05T03:44:56.246Z,58.20
2022-08-05T03:47:24.398Z,58.10
2022-08-05T03:49:52.403Z,58.20
2022-08-05T03:52:38.697Z,58.30
2022-08-05T03:56:09.339Z,58.30
2022-08-05T03:57:58.046Z,58.30
2022-08-05T04:00:29.769Z,58.20
2022-08-05T04:02:59.231Z,58.20
2022-08-05T04:05:27.931Z,58.20
2022-08-05T04:08:01.212Z,58.10
2022-08-05T04:10:30.797Z,58.00
2022-08-05T04:13:00.417Z,58.10
2022-08-05T04:15:33.148Z,58.00
2022-08-05T04:18:04.054Z,58.00
2022-08-05T04:20:34.831Z,57.90
2022-08-05T04:23:02.011Z,57.80
2022-08-05T04:25:57.591Z,57.50
2022-08-05T04:28:17.250Z,57.60
2022-08-05T04:30:44.684Z,57.50
2022-08-05T04:33:12.167Z,57.50
2022-08-05T04:36:09.500Z,57.30
2022-08-05T04:38:39.254Z,57.30
2022-08-05T04:41:07.354Z,57.30
2022-08-05T04:43:37.274Z,57.40
2022-08-05T04:46:05.147Z,57.40
2022-08-05T04:48:32.169Z,57.20
2022-08-05T04:51:03.138Z,57.30
2022-08-05T04:53:38.571Z,57.30
2022-08-05T04:56:33.150Z,57.10
2022-08-05T04:58:56.098Z,56.80
2022-08-05T05:02:04.040Z,56.70
2022-08-05T05:04:10.737Z,56.80
2022-08-05T05:06:42.287Z,56.60
2022-08-05T05:09:14.248Z,56.30
2022-08-05T05:11:53.989Z,56.20
2022-08-05T05:14:31.262Z,56.00
2022-08-05T05:17:03.302Z,56.20
2022-08-05T05:19:36.380Z,56.30
2022-08-05T05:22:24.382Z,56.40
2022-08-05T05:24:56.702Z,56.30
2022-08-05T05:27:45.332Z,56.30
2022-08-05T05:30:34.811Z,56.00
2022-08-05T05:33:03.864Z,55.90
2022-08-05T05:35:42.545Z,55.70
2022-08-05T05:38:12.940Z,55.70
2022-08-05T05:40:47.951Z,55.60
2022-08-05T05:43:27.545Z,55.50
2022-08-05T05:46:10.683Z,55.30
2022-08-05T05:48:42.026Z,55.10
2022-08-05T05:51:15.581Z,54.80
2022-08-05T05:53:54.396Z,54.80
2022-08-05T05:56:33.255Z,54.80
2022-08-05T05:59:03.412Z,54.90
2022-08-05T06:01:37.617Z,54.60
2022-08-05T06:04:09.332Z,54.40
2022-08-05T06:06:47.732Z,54.10
2022-08-05T06:09:17.564Z,53.70
2022-08-05T06:11:59.094Z,53.60
2022-08-05T06:14:28.076Z,53.20
2022-08-05T06:16:56.835Z,52.40
2022-08-05T06:19:32.909Z,52.10
2022-08-05T06:22:02.776Z,51.40
2022-08-05T06:24:30.335Z,51.30
2022-08-05T06:26:58.015Z,51.30
2022-08-05T06:29:52.024Z,51.30
2022-08-05T06:32:21.106Z,50.80
2022-08-05T06:34:53.469Z,50.60
2022-08-05T06:37:56.407Z,50.30
2022-08-05T06:40:08.317Z,50.20
2022-08-05T06:42:35.521Z,50.00
2022-08-05T06:45:05.622Z,49.20
2022-08-05T06:48:46.857Z,48.70
2022-08-05T06:50:23.625Z,48.60
2022-08-05T06:53:03.717Z,48.20
2022-08-05T06:55:37.870Z,48.10
2022-08-05T06:58:30.048Z,47.70
2022-08-05T07:00:58.582Z,48.30
2022-08-05T07:03:32.319Z,48.60
2022-08-05T07:06:05.886Z,48.60
2022-08-05T07:08:47.906Z,48.00
2022-08-05T07:11:22.513Z,48.30
2022-08-05T07:14:19.939Z,47.80
2022-08-05T07:17:58.200Z,47.50
2022-08-05T07:22:35.508Z,46.70
2022-08-05T07:25:22.752Z,46.80
2022-08-05T07:27:57.459Z,46.60
2022-08-05T07:30:38.799Z,46.90
2022-08-05T07:33:09.457Z,46.70
2022-08-05T07:36:02.514Z,46.60
2022-08-05T07:38:33.491Z,46.30
2022-08-05T07:41:35.297Z,46.00
2022-08-05T07:43:57.106Z,45.60
2022-08-05T07:46:26.049Z,45.60
2022-08-05T07:49:04.444Z,45.40
2022-08-05T07:51:36.645Z,45.00
2022-08-05T07:54:05.308Z,44.00
2022-08-05T07:57:00.442Z,43.80
2022-08-05T07:59:30.973Z,43.60
2022-08-05T08:02:07.521Z,42.70
2022-08-05T08:04:44.832Z,42.80
2022-08-05T08:07:12.534Z,42.60
2022-08-05T08:09:39.518Z,42.90
2022-08-05T08:12:18.523Z,42.70
2022-08-05T08:14:53.705Z,43.00
2022-08-05T08:17:21.810Z,43.10
2022-08-05T08:20:43.784Z,42.60
2022-08-05T08:22:37.051Z,42.30
2022-08-05T08:25:15.814Z,42.80
2022-08-05T08:27:47.507Z,42.20
2022-08-05T08:30:29.635Z,41.70
2022-08-05T08:33:04.364Z,41.90
2022-08-05T08:35:34.695Z,40.60
2022-08-05T08:38:02.352Z,39.60
2022-08-05T08:40:30.253Z,39.80
2022-08-05T08:42:58.157Z,40.40
2022-08-05T08:45:45.084Z,40.40
2022-08-05T08:48:42.978Z,39.00
2022-08-05T08:51:07.510Z,39.20
2022-08-05T08:53:48.556Z,38.70
2022-08-05T08:56:16.472Z,38.80
2022-08-05T08:58:47.950Z,38.10
2022-08-05T09:01:17.497Z,36.80
2022-08-05T09:03:57.576Z,36.70
2022-08-05T09:06:40.537Z,35.90
2022-08-05T09:09:08.179Z,33.80
2022-08-05T09:11:50.806Z,33.20
2022-08-05T09:14:56.384Z,33.20
2022-08-05T09:17:08.147Z,32.40
2022-08-05T09:20:01.786Z,32.30
2022-08-05T09:22:31.886Z,32.60
2022-08-05T09:25:13.776Z,32.70
2022-08-05T09:28:04.051Z,32.90
2022-08-05T09:30:34.507Z,32.90
2022-08-05T09:33:01.902Z,31.80
2022-08-05T09:35:29.472Z,31.30
2022-08-05T09:38:12.106Z,31.20
2022-08-05T09:40:52.006Z,31.10
2022-08-05T09:43:40.449Z,30.10
2022-08-05T09:46:27.312Z,30.20
2022-08-05T09:49:08.024Z,30.10
2022-08-05T09:51:49.937Z,30.10
2022-08-05T09:54:21.186Z,29.30
2022-08-05T09:57:01.785Z,28.30
2022-08-05T09:59:35.072Z,28.30
2022-08-05T10:02:08.697Z,28.20
2022-08-05T10:04:39.841Z,28.20
2022-08-05T10:07:20.247Z,28.40
2022-08-05T10:10:13.749Z,28.50
2022-08-05T10:12:49.191Z,28.80
2022-08-05T10:15:22.935Z,28.60
2022-08-05T10:18:17.864Z,29.00
2022-08-05T10:21:08.676Z,28.80
2022-08-05T10:23:59.748Z,27.80
2022-08-05T10:26:32.551Z,27.50
2022-08-05T10:29:07.402Z,27.90
2022-08-05T10:32:54.223Z,28.00
2022-08-05T10:34:25.943Z,27.60
2022-08-05T10:36:59.077Z,27.50
2022-08-05T10:39:59.236Z,28.20
2022-08-05T10:42:34.362Z,28.60
2022-08-05T10:45:21.056Z,27.20
2022-08-05T10:48:31.907Z,27.50
2022-08-05T10:51:03.430Z,27.90
2022-08-05T10:53:45.124Z,28.20
2022-08-05T10:56:21.171Z,27.80
2022-08-05T10:58:55.314Z,27.70
2022-08-05T11:01:54.691Z,28.10
2022-08-05T11:04:30.706Z,27.90
2022-08-05T11:06:58.473Z,27.90
2022-08-05T11:12:27.089Z,27.60
2022-08-05T11:15:21.289Z,28.00
2022-08-05T11:17:57.031Z,28.10
2022-08-05T11:20:34.703Z,27.40
2022-08-05T11:23:10.541Z,27.70
2022-08-05T11:26:06.106Z,27.90
2022-08-05T11:28:26.793Z,27.50
2022-08-05T11:30:58.552Z,27.80
2022-08-05T11:33:43.757Z,27.00
2022-08-05T11:36:16.325Z,27.50
2022-08-05T11:39:01.874Z,27.80
2022-08-05T11:41:56.377Z,27.00
2022-08-05T11:44:40.780Z,26.40
2022-08-05T11:47:11.764Z,26.30
2022-08-05T11:49:55.180Z,26.20
2022-08-05T11:52:23.595Z,26.20
2022-08-05T11:54:57.019Z,26.40
2022-08-05T11:57:28.113Z,26.30
2022-08-05T11:59:58.034Z,26.40
2022-08-05T12:02:31.395Z,26.50
2022-08-05T12:05:00.621Z,26.40
2022-08-05T12:08:08.221Z,26.60
2022-08-05T12:10:17.567Z,26.80
2022-08-05T12:12:46.624Z,25.70
2022-08-05T12:15:38.601Z,26.20
2022-08-05T12:18:10.604Z,26.10
2022-08-05T12:20:41.374Z,25.90
2022-08-05T12:23:11.329Z,25.50
2022-08-05T12:26:04.778Z,25.60
2022-08-05T12:28:34.485Z,25.40
2022-08-05T12:31:05.467Z,25.60
2022-08-05T12:33:37.161Z,25.80
2022-08-05T12:36:09.001Z,26.10
2022-08-05T12:38:38.052Z,25.90
2022-08-05T12:41:13.450Z,25.70
2022-08-05T12:44:01.551Z,25.70
2022-08-05T12:46:31.399Z,25.40
2022-08-05T12:48:58.582Z,25.20
2022-08-05T12:52:12.356Z,25.40
2022-08-05T12:54:26.682Z,25.80
2022-08-05T12:56:54.405Z,26.00
2022-08-05T12:59:27.457Z,25.70
2022-08-05T13:02:11.139Z,25.30
2022-08-05T13:04:41.620Z,24.90
2022-08-05T13:07:16.219Z,25.00
2022-08-05T13:09:59.836Z,25.30
2022-08-05T13:12:34.084Z,25.20
2022-08-05T13:15:24.186Z,25.50
2022-08-05T13:17:55.570Z,25.20
2022-08-05T13:20:35.226Z,25.20
2022-08-05T13:23:09.682Z,25.30
2022-08-05T13:25:58.228Z,25.20
2022-08-05T13:28:29.097Z,25.20
2022-08-05T13:31:14.201Z,25.20
2022-08-05T13:34:21.872Z,25.20
2022-08-05T13:36:30.742Z,25.30
2022-08-05T13:38:57.819Z,24.90
2022-08-05T13:41:35.916Z,24.90
2022-08-05T13:44:04.992Z,24.90
2022-08-05T13:46:44.002Z,24.70
2022-08-05T13:49:20.185Z,24.70
2022-08-05T13:51:48.376Z,25.00
2022-08-05T13:54:21.202Z,24.40
2022-08-05T13:56:53.288Z,24.40
2022-08-05T13:59:24.468Z,24.50
2022-08-05T14:01:57.573Z,24.50
2022-08-05T14:05:11.905Z,24.80
2022-08-05T14:08:00.348Z,24.60
2022-08-05T14:10:31.000Z,24.60
2022-08-05T14:13:02.337Z,23.80
2022-08-05T14:16:05.184Z,24.30
2022-08-05T14:18:18.713Z,24.60
2022-08-05T14:20:54.607Z,24.70
2022-08-05T14:23:24.582Z,25.00
2022-08-05T14:25:58.391Z,25.50
2022-08-05T14:28:29.082Z,25.00
2022-08-05T14:30:56.908Z,25.00
2022-08-05T14:33:24.290Z,25.20
2022-08-05T14:35:52.316Z,25.70
2022-08-05T14:38:32.267Z,25.50
2022-08-05T14:41:06.161Z,25.50
2022-08-05T14:43:59.036Z,25.30
2022-08-05T14:46:22.120Z,25.50
2022-08-05T14:48:50.097Z,25.70
2022-08-05T14:51:17.690Z,26.60
2022-08-05T14:53:45.090Z,26.80
2022-08-05T14:56:13.350Z,27.00
2022-08-05T14:58:47.963Z,26.70
2022-08-05T15:01:47.274Z,26.80
2022-08-05T15:04:11.599Z,26.80
2022-08-05T15:06:38.991Z,27.10
2022-08-05T15:09:08.537Z,27.20
2022-08-05T15:11:53.272Z,27.50
2022-08-05T15:14:34.578Z,26.90
2022-08-05T15:17:44.774Z,28.00
2022-08-05T15:19:57.578Z,27.50
2022-08-05T15:22:27.278Z,27.50
2022-08-05T15:24:56.064Z,27.50
2022-08-05T15:27:25.712Z,27.70
2022-08-05T15:29:54.287Z,27.70
2022-08-05T15:32:27.416Z,27.60
2022-08-05T15:34:56.765Z,27.40
2022-08-05T15:38:32.325Z,27.80
2022-08-05T15:41:00.212Z,27.90
2022-08-05T15:43:09.240Z,27.70
2022-08-05T15:45:46.049Z,28.00
2022-08-05T15:48:14.278Z,27.80
2022-08-05T15:50:43.807Z,27.80
2022-08-05T15:53:13.095Z,27.80
2022-08-05T15:56:03.920Z,28.10
2022-08-05T15:58:35.663Z,28.20
2022-08-05T16:01:15.799Z,28.40
2022-08-05T16:03:44.871Z,28.30
2022-08-05T16:06:15.620Z,28.40
2022-08-05T16:08:47.877Z,28.00
2022-08-05T16:11:20.933Z,28.20
2022-08-05T16:14:06.092Z,28.30
2022-08-05T16:16:33.523Z,28.20
2022-08-05T16:19:00.732Z,28.50
2022-08-05T16:22:00.710Z,28.30
2022-08-05T16:24:41.248Z,28.30
2022-08-05T16:27:01.936Z,28.30
2022-08-05T16:29:37.683Z,28.50
2022-08-05T16:32:05.555Z,28.60
2022-08-05T16:34:32.728Z,28.50
2022-08-05T16:36:59.800Z,28.50
2022-08-05T16:40:04.665Z,28.60
2022-08-05T16:42:18.589Z,28.60
2022-08-05T16:44:57.034Z,28.70
2022-08-05T16:47:29.030Z,28.60
2022-08-05T16:50:04.235Z,28.90
2022-08-05T16:52:33.323Z,28.80
2022-08-05T16:55:00.691Z,28.70
2022-08-05T16:57:53.160Z,28.50
2022-08-05T17:00:26.066Z,29.10
2022-08-05T17:03:02.438Z,28.80
2022-08-05T17:05:30.890Z,29.00
2022-08-05T17:07:58.223Z,28.80
2022-08-05T17:10:26.451Z,29.20
2022-08-05T17:12:57.692Z,29.00
2022-08-05T17:15:24.869Z,29.00
2022-08-05T17:18:14.120Z,29.40
2022-08-05T17:20:41.926Z,29.50
2022-08-05T17:24:03.396Z,29.60
2022-08-05T17:25:58.431Z,29.60
2022-08-05T17:28:26.296Z,29.30
2022-08-05T17:30:56.175Z,29.40
2022-08-05T17:33:23.301Z,29.70
2022-08-05T17:36:07.374Z,29.80
2022-08-05T17:38:37.416Z,29.80
2022-08-05T17:41:11.497Z,30.00
2022-08-05T17:43:53.338Z,30.20
2022-08-05T17:46:21.718Z,30.30
2022-08-05T17:48:48.882Z,30.50
2022-08-05T17:51:21.692Z,30.40
2022-08-05T17:53:50.717Z,30.50
2022-08-05T17:56:21.636Z,30.90
2022-08-05T17:58:51.520Z,31.70
2022-08-05T18:01:21.219Z,31.10
2022-08-05T18:03:56.101Z,31.30
2022-08-05T18:06:29.301Z,31.50
2022-08-05T18:08:58.349Z,31.70
2022-08-05T18:11:32.566Z,31.70
2022-08-05T18:14:06.529Z,32.10
2022-08-05T18:16:34.531Z,31.90
2022-08-05T18:19:02.203Z,32.30
2022-08-05T18:22:08.757Z,32.30
2022-08-05T18:24:19.219Z,32.20
2022-08-05T18:26:48.111Z,32.30
2022-08-05T18:29:16.782Z,32.60
2022-08-05T18:31:43.954Z,32.60
2022-08-05T18:34:13.175Z,32.10
2022-08-05T18:36:43.701Z,32.40
2022-08-05T18:39:42.150Z,32.80
2022-08-05T18:42:07.577Z,33.00
2022-08-05T18:44:49.294Z,33.30
2022-08-05T18:47:26.370Z,34.10
2022-08-05T18:50:12.685Z,34.40
2022-08-05T18:52:51.754Z,34.90
2022-08-05T18:55:18.975Z,35.00
2022-08-05T18:57:52.665Z,35.00
2022-08-05T19:00:28.633Z,35.20
2022-08-05T19:02:57.522Z,35.40
2022-08-05T19:06:11.531Z,35.60
2022-08-05T19:08:30.543Z,35.80
2022-08-05T19:11:04.421Z,36.00
2022-08-05T19:13:36.111Z,36.30
2022-08-05T19:16:24.304Z,36.40
2022-08-05T19:18:53.822Z,36.70
2022-08-05T19:21:24.017Z,36.90
2022-08-05T19:24:05.997Z,37.10
2022-08-05T19:26:43.801Z,37.10
2022-08-05T19:29:22.357Z,37.10
2022-08-05T19:31:51.061Z,37.20
2022-08-05T19:34:19.645Z,37.30
2022-08-05T19:36:49.265Z,37.40
2022-08-05T19:39:18.735Z,37.60
2022-08-05T19:42:05.692Z,37.70
2022-08-05T19:44:40.218Z,38.40
2022-08-05T19:47:15.045Z,37.80
2022-08-05T19:49:43.494Z,38.00
2022-08-05T19:52:31.141Z,38.00
2022-08-05T19:55:07.074Z,38.20
2022-08-05T19:58:10.348Z,38.30
2022-08-05T20:00:37.486Z,38.80
2022-08-05T20:03:08.720Z,39.10
2022-08-05T20:05:43.363Z,39.20
2022-08-05T20:08:17.781Z,39.20
2022-08-05T20:10:49.331Z,39.20
2022-08-05T20:13:17.557Z,39.20
2022-08-05T20:15:50.765Z,39.80
2022-08-05T20:18:33.567Z,39.30
2022-08-05T20:21:04.611Z,39.40
2022-08-05T20:23:40.738Z,40.00
2022-08-05T20:26:20.786Z,40.20
2022-08-05T20:28:53.231Z,40.20
2022-08-05T20:31:21.670Z,40.30
2022-08-05T20:33:50.370Z,40.40
2022-08-05T20:36:18.019Z,40.30
2022-08-05T20:38:53.770Z,40.50
2022-08-05T20:41:26.922Z,40.80
2022-08-05T20:44:19.353Z,40.90
2022-08-05T20:46:58.193Z,41.10
2022-08-05T20:49:25.832Z,41.00
2022-08-05T20:51:54.019Z,41.20
2022-08-05T20:54:21.990Z,41.50
2022-08-05T20:56:52.474Z,41.30
2022-08-05T20:59:26.638Z,41.50
2022-08-05T21:01:56.544Z,41.60
2022-08-05T21:04:26.840Z,41.60
2022-08-05T21:06:57.097Z,41.80
2022-08-05T21:09:25.168Z,42.00
2022-08-05T21:12:09.093Z,42.30
2022-08-05T21:14:39.005Z,42.40
2022-08-05T21:17:06.310Z,42.50
2022-08-05T21:19:47.106Z,42.50
2022-08-05T21:22:18.566Z,42.60
2022-08-05T21:24:51.926Z,42.50
2022-08-05T21:27:20.638Z,42.70
2022-08-05T21:29:52.703Z,42.90
2022-08-05T21:32:23.523Z,43.00
2022-08-05T21:34:55.879Z,43.20
2022-08-05T21:37:41.308Z,43.00
2022-08-05T21:40:13.667Z,43.00
2022-08-05T21:42:44.553Z,43.00
2022-08-05T21:45:12.016Z,43.10
2022-08-05T21:47:55.587Z,43.10
2022-08-05T21:50:25.324Z,43.00
2022-08-05T21:52:52.425Z,43.10
2022-08-05T21:56:01.700Z,43.10
2022-08-05T21:58:06.927Z,43.40
2022-08-05T22:00:37.493Z,43.50
2022-08-05T22:03:07.250Z,43.60
2022-08-05T22:05:49.243Z,43.70
2022-08-05T22:08:22.471Z,43.90
2022-08-05T22:10:51.335Z,43.90
2022-08-05T22:14:19.385Z,44.00
2022-08-05T22:16:15.656Z,44.20
2022-08-05T22:18:54.118Z,44.40
2022-08-05T22:21:25.754Z,44.40
2022-08-05T22:24:39.661Z,44.50
2022-08-05T22:27:20.737Z,44.60
2022-08-05T22:29:49.075Z,44.80
2022-08-05T22:32:21.766Z,45.00
2022-08-05T22:34:50.139Z,45.10
2022-08-05T22:37:17.361Z,45.20
2022-08-05T22:39:45.376Z,46.00
2022-08-05T22:42:25.551Z,45.60
2022-08-05T22:44:56.992Z,45.60
2022-08-05T22:47:29.841Z,45.90
2022-08-05T22:50:20.522Z,45.90
2022-08-05T22:52:50.171Z,45.90
2022-08-05T22:55:21.409Z,46.00
2022-08-05T22:57:50.397Z,46.10
2022-08-05T23:00:17.778Z,46.20
2022-08-05T23:02:48.277Z,46.30
2022-08-05T23:05:15.627Z,46.40
2022-08-05T23:07:44.703Z,46.50
2022-08-05T23:10:12.712Z,46.70
2022-08-05T23:12:40.018Z,46.60
2022-08-05T23:15:13.480Z,46.60
2022-08-05T23:18:00.128Z,46.80
2022-08-05T23:20:27.481Z,46.80
2022-08-05T23:22:56.666Z,47.00
2022-08-05T23:25:51.447Z,47.10
2022-08-05T23:28:20.723Z,47.10
2022-08-05T23:30:53.322Z,47.30
2022-08-05T23:33:25.708Z,47.50
2022-08-05T23:36:06.484Z,47.60
2022-08-05T23:38:37.382Z,47.60
2022-08-05T23:41:05.391Z,47.70
2022-08-05T23:43:49.736Z,47.90
2022-08-05T23:46:21.960Z,48.20
2022-08-05T23:49:00.512Z,48.30
2022-08-05T23:51:52.461Z,48.40
2022-08-05T23:54:25.736Z,48.60
2022-08-05T23:56:54.186Z,48.50
2022-08-05T23:59:22.883Z,48.60
